createdAt,value
2022-10-05T00:00:33.373Z,99647.00
2022-10-05T00:02:17.811Z,99651.00
2022-10-05T00:03:51.982Z,99645.00
2022-10-05T00:05:33.732Z,99651.00
2022-10-05T00:07:15.232Z,99661.00
2022-10-05T00:08:47.592Z,99656.00
2022-10-05T00:10:21.623Z,99656.00
2022-10-05T00:11:55.204Z,99658.00
2022-10-05T00:13:31.334Z,99649.00
2022-10-05T00:15:13.732Z,99661.00
2022-10-05T00:16:47.471Z,99645.00
2022-10-05T00:18:23.482Z,99650.00
2022-10-05T00:19:57.107Z,99643.00
2022-10-05T00:21:30.858Z,99641.00
2022-10-05T00:23:14.752Z,99637.00
2022-10-05T00:24:56.024Z,99629.00
2022-10-05T00:26:34.183Z,99616.00
2022-10-05T00:28:19.661Z,99629.00
2022-10-05T00:30:01.218Z,99618.00
2022-10-05T00:31:37.238Z,99622.00
2022-10-05T00:33:10.543Z,99621.00
2022-10-05T00:34:46.055Z,99627.00
2022-10-05T00:36:20.716Z,99630.00
2022-10-05T00:37:56.604Z,99622.00
2022-10-05T00:39:29.991Z,99619.00
2022-10-05T00:41:12.935Z,99615.00
2022-10-05T00:42:58.931Z,99627.00
2022-10-05T00:44:46.805Z,99619.00
2022-10-05T00:46:27.068Z,99623.00
2022-10-05T00:48:15.104Z,99622.00
2022-10-05T00:50:25.951Z,99628.00
2022-10-05T00:52:20.061Z,99628.00
2022-10-05T00:54:21.775Z,99621.00
2022-10-05T00:56:04.559Z,99619.00
2022-10-05T00:57:58.219Z,99622.00
2022-10-05T00:59:50.177Z,99626.00
2022-10-05T01:01:33.385Z,99620.00
2022-10-05T01:03:20.143Z,99623.00
2022-10-05T01:05:03.596Z,99623.00
2022-10-05T01:06:52.242Z,99620.00
2022-10-05T01:08:43.191Z,99614.00
2022-10-05T01:10:27.813Z,99619.00
2022-10-05T01:12:10.318Z,99627.00
2022-10-05T01:13:56.243Z,99633.00
2022-10-05T01:15:36.419Z,99628.00
2022-10-05T01:17:20.328Z,99635.00
2022-10-05T01:19:06.250Z,99633.00
2022-10-05T01:20:55.529Z,99637.00
2022-10-05T01:22:51.962Z,99623.00
2022-10-05T01:24:53.746Z,99625.00
2022-10-05T01:27:06.711Z,99617.00
2022-10-05T01:28:52.604Z,99613.00
2022-10-05T01:30:26.038Z,99614.00
2022-10-05T01:32:07.011Z,99626.00
2022-10-05T01:33:47.682Z,99628.00
2022-10-05T01:35:36.703Z,99629.00
2022-10-05T01:37:24.248Z,99621.00
2022-10-05T01:39:12.875Z,99613.00
2022-10-05T01:41:03.118Z,99613.00
2022-10-05T01:42:57.165Z,99613.00
2022-10-05T01:44:41.235Z,99617.00
2022-10-05T01:46:28.525Z,99610.00
2022-10-05T01:48:12.698Z,99614.00
2022-10-05T01:49:58.706Z,99615.00
2022-10-05T01:51:46.232Z,99610.00
2022-10-05T01:53:36.671Z,99605.00
2022-10-05T01:55:23.698Z,99604.00
2022-10-05T01:57:13.100Z,99594.00
2022-10-05T01:59:01.156Z,99598.00
2022-10-05T02:00:50.053Z,99597.00
2022-10-05T02:02:26.149Z,99585.00
2022-10-05T02:04:10.070Z,99591.00
2022-10-05T02:05:52.231Z,99590.00
2022-10-05T02:07:35.242Z,99595.00
2022-10-05T02:09:18.281Z,99586.00
2022-10-05T02:11:00.550Z,99593.00
2022-10-05T02:12:39.089Z,99586.00
2022-10-05T02:14:18.389Z,99586.00
2022-10-05T02:16:01.456Z,99581.00
2022-10-05T02:17:44.308Z,99572.00
2022-10-05T02:19:22.959Z,99572.00
2022-10-05T02:20:59.343Z,99566.00
2022-10-05T02:22:40.722Z,99561.00
2022-10-05T02:24:24.083Z,99557.00
2022-10-05T02:25:59.451Z,99555.00
2022-10-05T02:27:38.478Z,99544.00
2022-10-05T02:29:17.511Z,99544.00
2022-10-05T02:30:59.827Z,99546.00
2022-10-05T02:32:40.764Z,99554.00
2022-10-05T02:34:27.100Z,99551.00
2022-10-05T02:36:15.885Z,99554.00
2022-10-05T02:38:06.115Z,99562.00
2022-10-05T02:39:56.235Z,99550.00
2022-10-05T02:41:42.438Z,99554.00
2022-10-05T02:43:28.533Z,99557.00
2022-10-05T02:45:17.051Z,99554.00
2022-10-05T02:47:06.208Z,99561.00
2022-10-05T02:48:53.415Z,99561.00
2022-10-05T02:50:38.247Z,99562.00
2022-10-05T03:03:44.852Z,99554.00
2022-10-05T03:05:27.014Z,99546.00
2022-10-05T03:07:14.336Z,99548.00
2022-10-05T03:09:01.119Z,99548.00
2022-10-05T03:10:46.968Z,99554.00
2022-10-05T03:12:43.699Z,99547.00
2022-10-05T03:14:26.003Z,99549.00
2022-10-05T03:16:36.032Z,99548.00
2022-10-05T03:18:25.386Z,99545.00
2022-10-05T03:20:23.559Z,99548.00
2022-10-05T03:22:07.078Z,99547.00
2022-10-05T03:23:57.411Z,99550.00
2022-10-05T03:25:56.373Z,99552.00
2022-10-05T03:27:42.915Z,99549.00
2022-10-05T03:29:29.888Z,99537.00
2022-10-05T03:31:10.158Z,99536.00
2022-10-05T03:32:58.447Z,99541.00
2022-10-05T03:34:43.820Z,99539.00
2022-10-05T03:36:30.301Z,99540.00
2022-10-05T03:38:14.280Z,99537.00
2022-10-05T03:39:55.235Z,99540.00
2022-10-05T03:41:41.188Z,99536.00
2022-10-05T03:43:47.335Z,99519.00
2022-10-05T03:45:31.476Z,99529.00
2022-10-05T03:47:21.011Z,99517.00
2022-10-05T03:49:09.636Z,99518.00
2022-10-05T03:50:59.679Z,99514.00
2022-10-05T03:52:40.727Z,99510.00
2022-10-05T03:54:24.052Z,99512.00
2022-10-05T03:56:06.620Z,99498.00
2022-10-05T03:57:43.472Z,99502.00
2022-10-05T03:59:27.723Z,99499.00
2022-10-05T04:01:11.373Z,99507.00
2022-10-05T04:02:52.047Z,99508.00
2022-10-05T04:04:31.632Z,99498.00
2022-10-05T04:06:13.431Z,99500.00
2022-10-05T04:07:56.835Z,99493.00
2022-10-05T04:09:37.865Z,99495.00
2022-10-05T04:11:16.491Z,99479.00
2022-10-05T04:12:55.725Z,99496.00
2022-10-05T04:14:38.062Z,99495.00
2022-10-05T04:16:16.737Z,99491.00
2022-10-05T04:17:59.139Z,99493.00
2022-10-05T04:19:41.349Z,99490.00
2022-10-05T04:21:24.651Z,99491.00
2022-10-05T04:23:15.511Z,99487.00
2022-10-05T04:24:56.519Z,99493.00
2022-10-05T04:26:42.328Z,99489.00
2022-10-05T04:28:31.062Z,99488.00
2022-10-05T04:30:12.363Z,99488.00
2022-10-05T04:32:04.807Z,99488.00
2022-10-05T04:33:38.786Z,99487.00
2022-10-05T04:35:45.955Z,99477.00
2022-10-05T04:37:26.581Z,99480.00
2022-10-05T04:39:19.844Z,99497.00
2022-10-05T04:41:15.896Z,99500.00
2022-10-05T04:43:05.772Z,99503.00
2022-10-05T04:45:11.312Z,99500.00
2022-10-05T04:47:07.329Z,99495.00
2022-10-05T04:49:24.579Z,99491.00
2022-10-05T04:51:18.875Z,99497.00
2022-10-05T04:53:07.128Z,99493.00
2022-10-05T04:55:00.323Z,99500.00
2022-10-05T04:56:42.826Z,99484.00
2022-10-05T04:58:32.251Z,99493.00
2022-10-05T05:00:20.962Z,99488.00
2022-10-05T05:02:08.861Z,99486.00
2022-10-05T05:04:07.401Z,99489.00
2022-10-05T05:06:15.777Z,99498.00
2022-10-05T05:07:57.743Z,99492.00
2022-10-05T05:10:15.009Z,99490.00
2022-10-05T05:12:08.869Z,99495.00
2022-10-05T05:14:20.992Z,99499.00
2022-10-05T05:16:05.453Z,99488.00
2022-10-05T05:18:03.661Z,99491.00
2022-10-05T05:19:56.216Z,99505.00
2022-10-05T05:21:44.292Z,99512.00
2022-10-05T05:23:31.359Z,99502.00
2022-10-05T05:25:32.731Z,99497.00
2022-10-05T05:27:29.136Z,99508.00
2022-10-05T05:29:18.519Z,99508.00
2022-10-05T05:31:13.368Z,99491.00
2022-10-05T05:33:12.315Z,99500.00
2022-10-05T05:35:06.846Z,99508.00
2022-10-05T05:37:01.191Z,99501.00
2022-10-05T05:38:38.701Z,99503.00
2022-10-05T05:40:22.031Z,99509.00
2022-10-05T05:42:07.144Z,99508.00
2022-10-05T05:44:05.693Z,99511.00
2022-10-05T05:45:44.034Z,99512.00
2022-10-05T05:47:24.995Z,99510.00
2022-10-05T05:48:58.380Z,99504.00
2022-10-05T05:50:45.980Z,99505.00
2022-10-05T05:52:28.503Z,99509.00
2022-10-05T05:54:28.749Z,99506.00
2022-10-05T05:56:12.157Z,99502.00
2022-10-05T05:57:55.780Z,99506.00
2022-10-05T05:59:41.859Z,99497.00
2022-10-05T06:01:33.352Z,99507.00
2022-10-05T06:03:20.034Z,99496.00
2022-10-05T06:05:02.315Z,99498.00
2022-10-05T06:06:42.405Z,99505.00
2022-10-05T06:08:23.525Z,99503.00
2022-10-05T06:10:12.450Z,99505.00
2022-10-05T06:11:59.661Z,99503.00
2022-10-05T06:13:39.624Z,99502.00
2022-10-05T06:15:29.244Z,99509.00
2022-10-05T06:17:11.223Z,99500.00
2022-10-05T06:18:51.787Z,99492.00
2022-10-05T06:20:32.019Z,99501.00
2022-10-05T06:22:17.099Z,99504.00
2022-10-05T06:23:59.527Z,99513.00
2022-10-05T06:25:49.717Z,99503.00
2022-10-05T06:27:36.574Z,99500.00
2022-10-05T06:29:20.353Z,99502.00
2022-10-05T06:31:19.414Z,99494.00
2022-10-05T06:33:27.958Z,99497.00
2022-10-05T06:35:18.686Z,99512.00
2022-10-05T06:37:00.992Z,99501.00
2022-10-05T06:39:04.479Z,99501.00
2022-10-05T06:40:57.866Z,99498.00
2022-10-05T06:43:06.761Z,99500.00
2022-10-05T06:45:08.795Z,99506.00
2022-10-05T06:47:04.117Z,99510.00
2022-10-05T06:49:18.286Z,99497.00
2022-10-05T06:51:27.272Z,99495.00
2022-10-05T06:53:30.103Z,99502.00
2022-10-05T06:55:19.558Z,99503.00
2022-10-05T06:57:05.491Z,99506.00
2022-10-05T06:59:00.453Z,99506.00
2022-10-05T07:00:44.309Z,99505.00
2022-10-05T07:02:30.807Z,99512.00
2022-10-05T07:04:38.133Z,99501.00
2022-10-05T07:06:17.803Z,99498.00
2022-10-05T07:07:59.113Z,99498.00
2022-10-05T07:09:53.333Z,99499.00
2022-10-05T07:11:54.308Z,99499.00
2022-10-05T07:14:14.118Z,99494.00
2022-10-05T07:16:00.761Z,99488.00
2022-10-05T07:17:50.016Z,99493.00
2022-10-05T07:19:42.289Z,99489.00
2022-10-05T07:21:29.156Z,99494.00
2022-10-05T07:23:32.140Z,99501.00
2022-10-05T07:25:14.413Z,99497.00
2022-10-05T07:27:02.892Z,99493.00
2022-10-05T07:28:48.260Z,99501.00
2022-10-05T07:30:22.751Z,99490.00
2022-10-05T07:32:11.776Z,99484.00
2022-10-05T07:33:54.131Z,99495.00
2022-10-05T07:35:59.354Z,99493.00
2022-10-05T07:37:55.438Z,99496.00
2022-10-05T07:39:59.780Z,99494.00
2022-10-05T07:41:43.552Z,99501.00
2022-10-05T07:43:51.483Z,99501.00
2022-10-05T07:45:32.997Z,99499.00
2022-10-05T07:47:20.392Z,99501.00
2022-10-05T07:49:03.939Z,99501.00
2022-10-05T07:50:53.343Z,99494.00
2022-10-05T07:52:35.208Z,99495.00
2022-10-05T07:54:24.480Z,99496.00
2022-10-05T07:56:05.731Z,99507.00
2022-10-05T07:57:50.414Z,99512.00
2022-10-05T07:59:35.689Z,99507.00
2022-10-05T08:01:19.220Z,99512.00
2022-10-05T08:03:02.483Z,99496.00
2022-10-05T08:04:48.271Z,99504.00
2022-10-05T08:06:50.417Z,99512.00
2022-10-05T08:08:36.534Z,99506.00
2022-10-05T08:10:30.068Z,99514.00
2022-10-05T08:12:32.422Z,99518.00
2022-10-05T08:14:17.431Z,99515.00
2022-10-05T08:15:56.710Z,99526.00
2022-10-05T08:17:42.389Z,99514.00
2022-10-05T08:19:24.129Z,99520.00
2022-10-05T08:20:59.935Z,99519.00
2022-10-05T08:22:44.650Z,99520.00
2022-10-05T08:24:35.775Z,99515.00
2022-10-05T08:26:26.146Z,99517.00
2022-10-05T08:28:10.920Z,99527.00
2022-10-05T08:29:56.575Z,99506.00
2022-10-05T08:31:36.077Z,99525.00
2022-10-05T08:33:17.787Z,99515.00
2022-10-05T08:35:00.152Z,99519.00
2022-10-05T08:36:55.019Z,99515.00
2022-10-05T08:38:34.212Z,99517.00
2022-10-05T08:40:46.273Z,99522.00
2022-10-05T08:43:01.103Z,99529.00
2022-10-05T08:45:07.714Z,99526.00
2022-10-05T08:47:10.605Z,99518.00
2022-10-05T08:49:35.046Z,99531.00
2022-10-05T08:51:37.425Z,99526.00
2022-10-05T08:53:51.626Z,99526.00
2022-10-05T08:55:38.042Z,99529.00
2022-10-05T08:58:07.510Z,99527.00
2022-10-05T09:00:18.392Z,99537.00
2022-10-05T09:02:21.899Z,99525.00
2022-10-05T09:04:27.456Z,99539.00
2022-10-05T09:06:33.223Z,99538.00
2022-10-05T09:08:45.123Z,99536.00
2022-10-05T09:11:08.895Z,99534.00
2022-10-05T09:13:22.988Z,99530.00
2022-10-05T09:15:26.293Z,99527.00
2022-10-05T09:17:24.376Z,99530.00
2022-10-05T09:19:52.099Z,99525.00
2022-10-05T09:21:42.871Z,99519.00
2022-10-05T09:23:38.329Z,99521.00
2022-10-05T09:25:23.998Z,99519.00
2022-10-05T09:27:10.322Z,99510.00
2022-10-05T09:29:13.377Z,99508.00
2022-10-05T09:31:17.759Z,99516.00
2022-10-05T09:33:37.763Z,99508.00
2022-10-05T09:36:00.509Z,99518.00
2022-10-05T09:38:14.035Z,99504.00
2022-10-05T09:40:52.752Z,99508.00
2022-10-05T09:42:53.115Z,99502.00
2022-10-05T09:45:10.527Z,99498.00
2022-10-05T09:47:20.628Z,99493.00
2022-10-05T09:49:17.449Z,99494.00
2022-10-05T09:51:51.156Z,99490.00
2022-10-05T09:53:58.725Z,99493.00
2022-10-05T09:56:09.262Z,99485.00
2022-10-05T09:58:41.320Z,99485.00
2022-10-05T10:00:34.282Z,99485.00
2022-10-05T10:02:52.287Z,99487.00
2022-10-05T10:04:49.256Z,99488.00
2022-10-05T10:07:03.647Z,99489.00
2022-10-05T10:08:53.131Z,99485.00
2022-10-05T10:11:02.365Z,99489.00
2022-10-05T10:12:49.217Z,99487.00
2022-10-05T10:15:11.185Z,99487.00
2022-10-05T10:17:22.305Z,99488.00
2022-10-05T10:19:27.029Z,99490.00
2022-10-05T10:22:12.321Z,99482.00
2022-10-05T10:24:15.049Z,99481.00
2022-10-05T10:26:36.283Z,99482.00
2022-10-05T10:28:46.215Z,99479.00
2022-10-05T10:30:55.630Z,99473.00
2022-10-05T10:33:13.415Z,99472.00
2022-10-05T10:35:21.167Z,99477.00
2022-10-05T10:37:36.052Z,99481.00
2022-10-05T10:39:22.367Z,99472.00
2022-10-05T10:41:47.886Z,99485.00
2022-10-05T10:43:49.201Z,99477.00
2022-10-05T10:45:49.785Z,99476.00
2022-10-05T10:47:49.185Z,99478.00
2022-10-05T10:49:50.135Z,99478.00
2022-10-05T10:51:57.131Z,99467.00
2022-10-05T10:54:12.233Z,99475.00
2022-10-05T10:56:10.074Z,99475.00
2022-10-05T10:58:27.298Z,99471.00
2022-10-05T11:00:50.402Z,99473.00
2022-10-05T11:03:13.171Z,99463.00
2022-10-05T11:05:14.659Z,99466.00
2022-10-05T11:07:25.897Z,99463.00
2022-10-05T11:09:42.024Z,99456.00
2022-10-05T11:11:52.191Z,99455.00
2022-10-05T11:13:44.665Z,99444.00
2022-10-05T11:16:22.207Z,99438.00
2022-10-05T11:18:15.549Z,99445.00
2022-10-05T11:20:09.167Z,99441.00
2022-10-05T11:22:09.494Z,99442.00
2022-10-05T11:24:38.770Z,99443.00
2022-10-05T11:26:42.244Z,99447.00
2022-10-05T11:28:36.028Z,99450.00
2022-10-05T11:31:06.069Z,99446.00
2022-10-05T11:33:34.667Z,99445.00
2022-10-05T11:35:34.777Z,99440.00
2022-10-05T11:37:56.626Z,99437.00
2022-10-05T11:39:45.965Z,99422.00
2022-10-05T11:42:06.161Z,99423.00
2022-10-05T11:44:30.791Z,99416.00
2022-10-05T11:46:15.148Z,99404.00
2022-10-05T11:48:51.390Z,99407.00
2022-10-05T11:50:34.288Z,99407.00
2022-10-05T11:52:14.824Z,99406.00
2022-10-05T11:54:02.609Z,99391.00
2022-10-05T11:55:44.939Z,99389.00
2022-10-05T11:57:28.706Z,99386.00
2022-10-05T11:59:15.731Z,99378.00
2022-10-05T12:00:57.848Z,99372.00
2022-10-05T12:03:13.748Z,99370.00
2022-10-05T12:05:01.700Z,99371.00
2022-10-05T12:06:58.367Z,99365.00
2022-10-05T12:08:47.600Z,99357.00
2022-10-05T12:10:34.876Z,99349.00
2022-10-05T12:12:21.965Z,99346.00
2022-10-05T12:14:07.732Z,99348.00
2022-10-05T12:15:52.188Z,99340.00
2022-10-05T12:17:36.902Z,99338.00
2022-10-05T12:19:19.505Z,99322.00
2022-10-05T12:21:02.795Z,99314.00
2022-10-05T12:22:45.144Z,99326.00
2022-10-05T12:24:28.145Z,99317.00
2022-10-05T12:26:06.046Z,99319.00
2022-10-05T12:27:46.072Z,99323.00
2022-10-05T12:29:28.486Z,99320.00
2022-10-05T12:31:26.670Z,99308.00
2022-10-05T12:33:09.844Z,99309.00
2022-10-05T12:35:01.792Z,99306.00
2022-10-05T12:37:03.054Z,99292.00
2022-10-05T12:38:44.891Z,99289.00
2022-10-05T12:40:28.581Z,99296.00
2022-10-05T12:42:23.218Z,99293.00
2022-10-05T12:44:12.442Z,99281.00
2022-10-05T12:46:05.620Z,99289.00
2022-10-05T12:48:00.971Z,99281.00
2022-10-05T12:49:59.267Z,99286.00
2022-10-05T12:51:42.264Z,99279.00
2022-10-05T12:53:37.315Z,99277.00
2022-10-05T12:55:25.924Z,99272.00
2022-10-05T12:57:06.987Z,99278.00
2022-10-05T12:58:53.705Z,99266.00
2022-10-05T13:00:27.724Z,99273.00
2022-10-05T13:02:17.796Z,99279.00
2022-10-05T13:04:04.468Z,99271.00
2022-10-05T13:05:48.258Z,99277.00
2022-10-05T13:07:42.182Z,99255.00
2022-10-05T13:09:26.451Z,99260.00
2022-10-05T13:11:12.655Z,99253.00
2022-10-05T13:13:04.857Z,99257.00
2022-10-05T13:14:57.632Z,99248.00
2022-10-05T13:16:54.818Z,99250.00
2022-10-05T13:18:44.359Z,99245.00
2022-10-05T13:20:30.239Z,99254.00
2022-10-05T13:22:26.440Z,99241.00
2022-10-05T13:24:08.789Z,99249.00
2022-10-05T13:25:55.098Z,99237.00
2022-10-05T13:27:35.331Z,99236.00
2022-10-05T13:29:23.235Z,99237.00
2022-10-05T13:31:07.763Z,99242.00
2022-10-05T13:32:48.080Z,99229.00
2022-10-05T13:34:35.001Z,99230.00
2022-10-05T13:36:18.769Z,99227.00
2022-10-05T13:38:08.786Z,99221.00
2022-10-05T13:39:59.276Z,99221.00
2022-10-05T13:41:54.397Z,99211.00
2022-10-05T13:43:43.879Z,99212.00
2022-10-05T13:45:22.933Z,99222.00
2022-10-05T13:47:06.197Z,99208.00
2022-10-05T13:48:56.141Z,99234.00
2022-10-05T13:50:35.839Z,99216.00
2022-10-05T13:52:34.968Z,99217.00
2022-10-05T13:54:20.904Z,99210.00
2022-10-05T13:56:00.862Z,99211.00
2022-10-05T13:57:49.669Z,99207.00
2022-10-05T13:59:33.070Z,99208.00
2022-10-05T14:01:16.908Z,99203.00
2022-10-05T14:02:54.123Z,99194.00
2022-10-05T14:04:42.983Z,99198.00
2022-10-05T14:06:30.547Z,99190.00
2022-10-05T14:08:18.339Z,99183.00
2022-10-05T14:09:52.243Z,99184.00
2022-10-05T14:11:32.395Z,99178.00
2022-10-05T14:13:24.187Z,99184.00
2022-10-05T14:15:00.098Z,99177.00
2022-10-05T14:16:35.407Z,99178.00
2022-10-05T14:18:28.840Z,99182.00
2022-10-05T14:20:16.840Z,99177.00
2022-10-05T14:22:01.931Z,99179.00
2022-10-05T14:23:36.741Z,99169.00
2022-10-05T14:25:18.189Z,99173.00
2022-10-05T14:26:56.155Z,99168.00
2022-10-05T14:28:33.042Z,99167.00
2022-10-05T14:30:23.479Z,99175.00
2022-10-05T14:32:02.981Z,99169.00
2022-10-05T14:33:38.197Z,99175.00
2022-10-05T14:35:18.402Z,99177.00
2022-10-05T14:36:58.868Z,99175.00
2022-10-05T14:38:52.214Z,99178.00
2022-10-05T14:40:34.068Z,99172.00
2022-10-05T14:42:20.217Z,99170.00
2022-10-05T14:44:00.155Z,99176.00
2022-10-05T14:45:33.894Z,99177.00
2022-10-05T14:47:22.490Z,99186.00
2022-10-05T14:49:17.432Z,99169.00
2022-10-05T14:50:56.551Z,99174.00
2022-10-05T14:52:34.582Z,99172.00
2022-10-05T14:54:29.853Z,99166.00
2022-10-05T14:56:43.315Z,99166.00
2022-10-05T14:58:55.543Z,99179.00
2022-10-05T15:00:34.678Z,99182.00
2022-10-05T15:02:36.050Z,99176.00
2022-10-05T15:04:35.010Z,99189.00
2022-10-05T15:06:22.044Z,99181.00
2022-10-05T15:08:08.774Z,99178.00
2022-10-05T15:10:07.411Z,99184.00
2022-10-05T15:11:50.210Z,99185.00
2022-10-05T15:13:30.453Z,99187.00
2022-10-05T15:15:17.901Z,99199.00
2022-10-05T15:16:54.691Z,99196.00
2022-10-05T15:18:40.895Z,99199.00
2022-10-05T15:20:25.711Z,99193.00
2022-10-05T15:22:23.503Z,99201.00
2022-10-05T15:24:03.679Z,99200.00
2022-10-05T15:25:47.850Z,99208.00
2022-10-05T15:27:32.712Z,99204.00
2022-10-05T15:29:21.591Z,99216.00
2022-10-05T15:31:04.002Z,99208.00
2022-10-05T15:32:59.811Z,99211.00
2022-10-05T15:34:42.317Z,99215.00
2022-10-05T15:36:35.389Z,99217.00
2022-10-05T15:38:25.599Z,99229.00
2022-10-05T15:40:04.432Z,99229.00
2022-10-05T15:42:00.352Z,99227.00
2022-10-05T15:43:48.495Z,99232.00
2022-10-05T15:45:32.175Z,99235.00
2022-10-05T15:47:10.675Z,99230.00
2022-10-05T15:49:00.551Z,99241.00
2022-10-05T15:50:46.607Z,99238.00
2022-10-05T15:52:29.782Z,99243.00
2022-10-05T15:54:28.502Z,99246.00
2022-10-05T15:56:10.847Z,99245.00
2022-10-05T15:57:51.849Z,99252.00
2022-10-05T15:59:34.151Z,99244.00
2022-10-05T16:01:13.258Z,99244.00
2022-10-05T16:02:56.452Z,99245.00
2022-10-05T16:04:48.434Z,99250.00
2022-10-05T16:06:56.629Z,99260.00
2022-10-05T16:09:03.176Z,99262.00
2022-10-05T16:10:44.856Z,99260.00
2022-10-05T16:12:39.169Z,99266.00
2022-10-05T16:14:28.903Z,99270.00
2022-10-05T16:16:21.988Z,99275.00
2022-10-05T16:18:13.459Z,99272.00
2022-10-05T16:20:04.037Z,99285.00
2022-10-05T16:21:51.560Z,99286.00
2022-10-05T16:23:42.266Z,99289.00
2022-10-05T16:25:24.656Z,99280.00
2022-10-05T16:27:04.514Z,99293.00
2022-10-05T16:28:54.055Z,99296.00
2022-10-05T16:30:30.658Z,99293.00
2022-10-05T16:32:17.438Z,99294.00
2022-10-05T16:34:06.568Z,99298.00
2022-10-05T16:35:52.910Z,99296.00
2022-10-05T16:37:39.299Z,99299.00
2022-10-05T16:39:23.171Z,99300.00
2022-10-05T16:41:08.181Z,99305.00
2022-10-05T16:42:58.080Z,99297.00
2022-10-05T16:44:44.293Z,99310.00
2022-10-05T16:46:30.949Z,99312.00
2022-10-05T16:48:16.762Z,99313.00
2022-10-05T16:50:04.033Z,99316.00
2022-10-05T16:51:55.485Z,99330.00
2022-10-05T16:53:36.984Z,99315.00
2022-10-05T16:55:20.024Z,99327.00
2022-10-05T16:56:59.290Z,99323.00
2022-10-05T16:58:54.528Z,99327.00
2022-10-05T17:00:46.420Z,99334.00
2022-10-05T17:02:40.845Z,99332.00
2022-10-05T17:04:38.793Z,99334.00
2022-10-05T17:06:56.537Z,99349.00
2022-10-05T17:09:12.025Z,99351.00
2022-10-05T17:11:15.991Z,99347.00
2022-10-05T17:13:05.957Z,99354.00
2022-10-05T17:14:56.448Z,99362.00
2022-10-05T17:16:51.460Z,99356.00
2022-10-05T17:18:54.992Z,99352.00
2022-10-05T17:20:49.157Z,99372.00
2022-10-05T17:22:30.163Z,99368.00
2022-10-05T17:24:24.355Z,99372.00
2022-10-05T17:26:13.643Z,99372.00
2022-10-05T17:28:16.359Z,99383.00
2022-10-05T17:29:53.012Z,99390.00
2022-10-05T17:31:26.970Z,99387.00
2022-10-05T17:33:19.821Z,99392.00
2022-10-05T17:35:18.938Z,99391.00
2022-10-05T17:36:59.668Z,99409.00
2022-10-05T17:38:49.730Z,99396.00
2022-10-05T17:40:38.260Z,99404.00
2022-10-05T17:42:48.088Z,99408.00
2022-10-05T17:44:26.283Z,99413.00
2022-10-05T17:46:00.993Z,99414.00
2022-10-05T17:47:56.519Z,99423.00
2022-10-05T17:50:18.425Z,99422.00
2022-10-05T17:52:23.083Z,99425.00
2022-10-05T17:54:13.859Z,99430.00
2022-10-05T17:55:47.775Z,99432.00
2022-10-05T17:57:24.575Z,99435.00
2022-10-05T17:59:01.406Z,99439.00
2022-10-05T18:01:06.902Z,99459.00
2022-10-05T18:02:43.731Z,99458.00
2022-10-05T18:04:38.508Z,99464.00
2022-10-05T18:06:34.218Z,99463.00
2022-10-05T18:08:32.610Z,99469.00
2022-10-05T18:10:28.729Z,99475.00
2022-10-05T18:12:37.153Z,99469.00
2022-10-05T18:14:23.205Z,99479.00
2022-10-05T18:15:56.768Z,99477.00
2022-10-05T18:17:45.500Z,99472.00
2022-10-05T18:19:23.481Z,99485.00
2022-10-05T18:21:30.412Z,99500.00
2022-10-05T18:23:35.322Z,99489.00
2022-10-05T18:25:26.039Z,99493.00
2022-10-05T18:27:26.446Z,99493.00
2022-10-05T18:29:44.414Z,99488.00
2022-10-05T18:31:33.800Z,99499.00
2022-10-05T18:33:50.650Z,99497.00
2022-10-05T18:35:32.847Z,99509.00
2022-10-05T18:37:31.605Z,99513.00
2022-10-05T18:39:24.051Z,99509.00
2022-10-05T18:41:06.582Z,99519.00
2022-10-05T18:42:53.786Z,99513.00
2022-10-05T18:44:40.415Z,99522.00
2022-10-05T18:46:28.940Z,99527.00
2022-10-05T18:48:19.514Z,99519.00
2022-10-05T18:50:12.668Z,99521.00
2022-10-05T18:51:56.230Z,99507.00
2022-10-05T18:53:43.440Z,99514.00
2022-10-05T18:55:32.719Z,99517.00
2022-10-05T18:57:48.468Z,99523.00
2022-10-05T18:59:48.490Z,99530.00
2022-10-05T19:01:49.171Z,99527.00
2022-10-05T19:03:32.667Z,99518.00
2022-10-05T19:05:46.835Z,99518.00
2022-10-05T19:07:32.017Z,99522.00
2022-10-05T19:09:24.785Z,99529.00
2022-10-05T19:11:17.830Z,99532.00
2022-10-05T19:13:10.744Z,99534.00
2022-10-05T19:14:56.622Z,99534.00
2022-10-05T19:16:55.324Z,99539.00
2022-10-05T19:18:50.594Z,99534.00
2022-10-05T19:20:33.975Z,99530.00
2022-10-05T19:22:23.256Z,99538.00
2022-10-05T19:24:41.794Z,99535.00
2022-10-05T19:26:30.831Z,99532.00
2022-10-05T19:28:20.612Z,99536.00
2022-10-05T19:30:19.523Z,99540.00
2022-10-05T19:32:00.737Z,99538.00
2022-10-05T19:33:59.243Z,99542.00
2022-10-05T19:35:45.038Z,99541.00
2022-10-05T19:37:31.191Z,99549.00
2022-10-05T19:39:13.445Z,99548.00
2022-10-05T19:40:57.878Z,99547.00
2022-10-05T19:43:10.917Z,99548.00
2022-10-05T19:45:03.579Z,99549.00
2022-10-05T19:46:55.429Z,99546.00
2022-10-05T19:48:43.059Z,99540.00
2022-10-05T19:50:28.279Z,99550.00
2022-10-05T19:52:02.105Z,99548.00
2022-10-05T19:53:45.698Z,99542.00
2022-10-05T19:55:36.100Z,99546.00
2022-10-05T19:57:18.109Z,99545.00
2022-10-05T19:58:57.820Z,99557.00
2022-10-05T20:00:35.407Z,99562.00
2022-10-05T20:02:15.287Z,99546.00
2022-10-05T20:03:49.299Z,99557.00
2022-10-05T20:05:23.785Z,99561.00
2022-10-05T20:06:57.338Z,99554.00
2022-10-05T20:08:41.823Z,99561.00
2022-10-05T20:10:29.790Z,99577.00
2022-10-05T20:12:03.873Z,99576.00
2022-10-05T20:13:39.970Z,99572.00
2022-10-05T20:15:38.375Z,99570.00
2022-10-05T20:17:35.916Z,99572.00
2022-10-05T20:19:47.096Z,99570.00
2022-10-05T20:21:56.560Z,99572.00
2022-10-05T20:23:30.331Z,99563.00
2022-10-05T20:25:06.691Z,99563.00
2022-10-05T20:27:04.467Z,99576.00
2022-10-05T20:28:38.716Z,99571.00
2022-10-05T20:30:17.759Z,99569.00
2022-10-05T20:31:50.114Z,99575.00
2022-10-05T20:33:27.331Z,99583.00
2022-10-05T20:35:00.711Z,99576.00
2022-10-05T20:36:34.624Z,99575.00
2022-10-05T20:38:07.992Z,99572.00
2022-10-05T20:39:42.456Z,99582.00
2022-10-05T20:41:16.492Z,99578.00
2022-10-05T20:42:50.294Z,99585.00
2022-10-05T20:44:22.607Z,99581.00
2022-10-05T20:45:57.719Z,99594.00
2022-10-05T20:47:32.033Z,99592.00
2022-10-05T20:49:08.347Z,99596.00
2022-10-05T20:50:41.762Z,99593.00
2022-10-05T20:52:15.723Z,99589.00
2022-10-05T20:53:49.863Z,99597.00
2022-10-05T20:55:23.215Z,99602.00
2022-10-05T20:56:57.524Z,99606.00
2022-10-05T20:58:30.728Z,99595.00
2022-10-05T21:00:05.450Z,99596.00
2022-10-05T21:01:40.246Z,99609.00
2022-10-05T21:03:13.776Z,99605.00
2022-10-05T21:04:48.418Z,99608.00
2022-10-05T21:06:21.283Z,99611.00
2022-10-05T21:07:54.507Z,99610.00
2022-10-05T21:09:27.786Z,99613.00
2022-10-05T21:11:01.070Z,99616.00
2022-10-05T21:12:34.602Z,99612.00
2022-10-05T21:14:07.973Z,99616.00
2022-10-05T21:15:41.615Z,99619.00
2022-10-05T21:17:16.319Z,99617.00
2022-10-05T21:18:49.941Z,99625.00
2022-10-05T21:20:23.408Z,99629.00
2022-10-05T21:21:59.072Z,99618.00
2022-10-05T21:23:32.688Z,99620.00
2022-10-05T21:25:09.012Z,99621.00
2022-10-05T21:26:44.121Z,99626.00
2022-10-05T21:28:17.430Z,99626.00
2022-10-05T21:29:51.306Z,99630.00
2022-10-05T21:31:24.747Z,99627.00
2022-10-05T21:32:59.413Z,99629.00
2022-10-05T21:34:33.041Z,99621.00
2022-10-05T21:36:06.575Z,99625.00
2022-10-05T21:37:39.863Z,99622.00
2022-10-05T21:39:13.176Z,99634.00
2022-10-05T21:40:46.547Z,99626.00